Time;durP1;ratioP1;P1;durP2;ratioP2;P2;SDS_P1;SDS_P2;PMS_P1;PMS_P2;Temp;Humidity;BMP_temperature;BMP_pressure;BME280_temperature;BME280_humidity;BME280_pressure;Samples;Min_cycle;Max_cycle;Signal;HPM_P1;HPM_P2
2022/05/10 00:00:52;;;;;;;7.53;3.28;;;;;;;12.93;51.00;101653.19;5027967;28;20194;-70
2022/05/10 00:03:21;;;;;;;7.70;3.40;;;;;;;12.88;51.01;101656.09;5057583;28;20059;-70
2022/05/10 00:05:48;;;;;;;9.63;3.85;;;;;;;12.84;51.03;101645.75;5042830;28;20057;-70
2022/05/10 00:08:17;;;;;;;8.85;3.55;;;;;;;12.81;51.18;101643.25;5048667;28;20516;-69
2022/05/10 00:10:46;;;;;;;7.75;3.22;;;;;;;12.80;51.42;101644.19;5062833;28;20632;-70
2022/05/10 00:13:13;;;;;;;7.80;3.42;;;;;;;12.76;51.14;101642.66;5042211;28;20049;-69
2022/05/10 00:15:41;;;;;;;10.50;4.55;;;;;;;12.74;51.47;101637.41;5061537;28;20041;-69
2022/05/10 00:18:12;;;;;;;7.28;3.78;;;;;;;12.72;51.38;101651.66;5059647;28;20051;-69
2022/05/10 00:20:41;;;;;;;8.90;3.85;;;;;;;12.69;51.40;101647.38;5056904;28;20079;-70
2022/05/10 00:23:08;;;;;;;6.68;3.88;;;;;;;12.63;51.74;101637.97;5062292;28;20462;-69
2022/05/10 00:25:38;;;;;;;6.07;3.53;;;;;;;12.60;52.02;101646.06;5064293;28;20045;-70
2022/05/10 00:28:05;;;;;;;7.50;4.07;;;;;;;12.56;52.15;101647.19;5060467;28;20056;-69
2022/05/10 00:30:34;;;;;;;8.20;3.70;;;;;;;12.52;52.33;101640.34;5059592;28;20059;-69
2022/05/10 00:33:01;;;;;;;8.77;4.38;;;;;;;12.51;52.50;101637.75;5064533;28;20048;-69
2022/05/10 00:35:30;;;;;;;8.52;3.60;;;;;;;12.48;52.06;101636.13;5042536;28;20749;-70
2022/05/10 00:37:59;;;;;;;6.07;3.42;;;;;;;12.45;52.55;101632.78;5058319;28;20048;-69
2022/05/10 00:40:30;;;;;;;9.75;3.90;;;;;;;12.41;52.64;101624.16;5066615;28;20396;-69
2022/05/10 00:43:01;;;;;;;9.02;3.72;;;;;;;12.38;52.71;101622.56;5049298;28;20041;-68
2022/05/10 00:45:50;;;;;;;6.72;3.75;;;;;;;12.34;52.57;101621.00;5065897;28;20048;-69
2022/05/10 00:48:28;;;;;;;10.77;4.13;;;;;;;12.31;53.04;101610.56;5044952;28;20063;-68
2022/05/10 00:51:10;;;;;;;8.18;3.45;;;;;;;12.30;53.15;101610.66;5049580;28;20056;-68
2022/05/10 00:53:58;;;;;;;10.63;3.70;;;;;;;12.27;53.69;101609.03;5072409;28;20037;-68
2022/05/10 00:57:02;;;;;;;9.20;3.80;;;;;;;12.22;53.68;101613.69;5044992;28;20044;-67
2022/05/10 00:59:39;;;;;;;5.45;3.75;;;;;;;12.20;53.95;101596.19;5014336;28;20064;-68
2022/05/10 01:02:14;;;;;;;6.43;3.50;;;;;;;12.19;53.48;101597.97;5053447;28;20102;-69
2022/05/10 01:04:48;;;;;;;7.32;4.03;;;;;;;12.16;53.73;101596.38;5061939;28;20111;-68
2022/05/10 01:07:19;;;;;;;6.45;3.42;;;;;;;12.13;53.96;101587.75;5062793;28;20053;-68
2022/05/10 01:09:53;;;;;;;6.70;3.30;;;;;;;12.11;53.57;101586.94;5068583;28;20071;-69
2022/05/10 01:12:31;;;;;;;5.35;3.25;;;;;;;12.08;53.67;101589.75;5045860;28;20063;-70
2022/05/10 01:15:11;;;;;;;6.07;3.60;;;;;;;12.06;53.75;101587.19;5041914;28;20063;-69
2022/05/10 01:17:39;;;;;;;8.80;3.58;;;;;;;12.04;53.76;101589.06;5063161;28;20045;-70
2022/05/10 01:20:07;;;;;;;6.70;3.67;;;;;;;12.02;53.59;101582.13;5045445;28;20049;-71
2022/05/10 01:22:50;;;;;;;4.93;3.42;;;;;;;11.99;53.96;101583.16;5043279;28;20418;-70
2022/05/10 01:25:38;;;;;;;7.20;3.22;;;;;;;11.96;54.28;101580.66;5064685;28;20055;-70
2022/05/10 01:28:31;;;;;;;5.53;3.78;;;;;;;11.92;54.12;101571.19;5058953;28;20403;-69
2022/05/10 01:31:03;;;;;;;9.32;3.67;;;;;;;11.88;54.16;101574.91;5057813;28;20087;-70
2022/05/10 01:33:37;;;;;;;7.88;3.65;;;;;;;11.86;54.78;101569.72;5048704;28;20090;-70
2022/05/10 01:36:25;;;;;;;7.47;4.00;;;;;;;11.82;54.89;101564.63;5061703;28;20052;-69
2022/05/10 01:39:01;;;;;;;8.48;3.80;;;;;;;11.81;54.88;101568.19;5046060;28;21338;-70
2022/05/10 01:41:33;;;;;;;7.15;4.00;;;;;;;11.77;54.86;101564.00;5051350;28;20166;-69
2022/05/10 01:44:06;;;;;;;12.18;3.58;;;;;;;11.76;55.20;101557.88;5060076;28;21540;-69
2022/05/10 01:46:33;;;;;;;9.77;3.63;;;;;;;11.75;54.97;101556.16;5063926;28;20152;-70
2022/05/10 01:49:23;;;;;;;6.88;3.90;;;;;;;11.74;55.11;101554.44;5061413;28;20048;-70
2022/05/10 01:51:59;;;;;;;6.03;3.47;;;;;;;11.73;55.71;101550.09;5050542;28;20060;-69
2022/05/10 01:55:02;;;;;;;7.22;3.80;;;;;;;11.74;55.36;101554.44;5067232;28;20076;-70
2022/05/10 01:57:31;;;;;;;5.65;3.33;;;;;;;11.73;55.24;101551.88;5066419;28;20053;-69
2022/05/10 02:00:33;;;;;;;8.05;3.83;;;;;;;11.71;54.96;101561.63;5064904;28;20045;-70
2022/05/10 02:03:12;;;;;;;11.05;3.85;;;;;;;11.68;55.32;101559.16;5064347;28;20514;-69
2022/05/10 02:06:18;;;;;;;9.00;3.60;;;;;;;11.63;55.21;101559.41;5046732;28;20071;-70
2022/05/10 02:09:16;;;;;;;10.27;4.10;;;;;;;11.56;55.67;101558.81;5060970;28;20041;-68
2022/05/10 02:12:11;;;;;;;10.00;3.80;;;;;;;11.53;55.45;101559.00;5066560;28;20499;-69
2022/05/10 02:14:42;;;;;;;10.02;4.25;;;;;;;11.51;56.15;101554.69;5045826;28;20052;-69
2022/05/10 02:17:16;;;;;;;11.93;3.90;;;;;;;11.50;56.07;101558.28;5047895;28;20056;-69
2022/05/10 02:19:48;;;;;;;14.07;3.65;;;;;;;11.47;56.09;101548.72;5052751;28;20059;-69
2022/05/10 02:22:22;;;;;;;8.52;4.25;;;;;;;11.47;55.90;101539.94;5044540;28;20048;-69
2022/05/10 02:24:53;;;;;;;10.32;4.10;;;;;;;11.47;55.91;101551.34;5046301;28;20055;-70
2022/05/10 02:27:36;;;;;;;9.45;4.25;;;;;;;11.45;55.97;101542.69;5049230;28;20033;-69
2022/05/10 02:30:09;;;;;;;9.82;3.85;;;;;;;11.42;56.02;101534.91;5068269;28;20518;-71
2022/05/10 02:35:26;;;;;;;10.63;4.45;;;;;;;11.38;56.39;101530.69;5059046;28;20052;-69
2022/05/10 02:37:54;;;;;;;9.82;3.72;;;;;;;11.37;56.80;101529.00;5062795;28;20056;-70
2022/05/10 02:40:21;;;;;;;6.20;3.47;;;;;;;11.33;56.46;101524.78;5065524;28;20052;-70
2022/05/10 02:42:49;;;;;;;6.53;3.95;;;;;;;11.30;56.65;101531.09;5060819;28;20464;-69
2022/05/10 02:45:20;;;;;;;7.15;4.18;;;;;;;11.27;56.50;101531.22;5069768;28;20041;-68
2022/05/10 02:47:48;;;;;;;7.82;4.03;;;;;;;11.24;56.76;101528.72;5072657;28;20525;-68
2022/05/10 02:50:28;;;;;;;9.25;4.28;;;;;;;11.21;56.39;101522.72;5040946;28;20491;-68
2022/05/10 02:52:55;;;;;;;13.85;4.65;;;;;;;11.19;56.44;101516.69;5079345;28;20052;-69
2022/05/10 02:55:53;;;;;;;8.00;3.72;;;;;;;11.15;56.47;101511.56;5032236;28;20057;-69
2022/05/10 02:58:30;;;;;;;9.07;3.55;;;;;;;11.13;56.17;101518.69;5065645;28;20061;-68
2022/05/10 03:01:27;;;;;;;8.82;4.35;;;;;;;11.09;56.85;101511.84;5053451;28;20049;-68
2022/05/10 03:03:54;;;;;;;7.90;4.20;;;;;;;11.09;56.74;101511.84;5039716;28;20048;-68
2022/05/10 03:06:25;;;;;;;9.85;3.90;;;;;;;11.08;56.99;101514.56;5070440;28;20048;-69
2022/05/10 03:08:52;;;;;;;7.20;3.83;;;;;;;11.08;56.70;101504.03;5061974;28;20531;-69
2022/05/10 03:11:20;;;;;;;6.07;3.85;;;;;;;11.06;56.75;101498.81;5061102;28;20048;-69
2022/05/10 03:13:47;;;;;;;7.82;4.22;;;;;;;11.06;57.01;101503.22;5065347;28;20079;-69
2022/05/10 03:16:20;;;;;;;9.25;4.18;;;;;;;11.05;56.69;101505.03;5068986;28;20049;-70
2022/05/10 03:18:48;;;;;;;8.82;4.70;;;;;;;11.05;57.31;101504.16;5045930;28;20049;-68
2022/05/10 03:21:16;;;;;;;7.47;3.78;;;;;;;11.04;56.90;101497.19;5084895;28;20149;-69
2022/05/10 03:23:43;;;;;;;8.57;4.05;;;;;;;11.03;56.36;101498.09;5077753;28;20048;-69
2022/05/10 03:26:12;;;;;;;9.93;4.18;;;;;;;11.02;56.65;101499.03;5090933;28;20049;-71
2022/05/10 03:28:41;;;;;;;9.40;3.65;;;;;;;10.99;56.80;101494.78;5067677;28;20507;-69
2022/05/10 03:31:09;;;;;;;8.60;4.90;;;;;;;10.99;57.06;101502.69;5043897;28;20144;-70
2022/05/10 03:33:36;;;;;;;8.98;4.15;;;;;;;10.99;56.66;101496.56;5045510;28;20544;-69
2022/05/10 03:36:04;;;;;;;8.10;4.05;;;;;;;10.98;56.88;101495.69;5046258;28;20040;-67
2022/05/10 03:38:32;;;;;;;9.60;4.78;;;;;;;11.00;56.79;101490.34;5069502;28;20053;-68
2022/05/10 03:41:00;;;;;;;8.70;4.60;;;;;;;11.02;56.88;101484.06;5069445;28;20469;-69
2022/05/10 03:43:27;;;;;;;11.77;4.50;;;;;;;11.04;56.69;101487.50;5068965;28;20056;-70
2022/05/10 03:45:55;;;;;;;7.07;3.78;;;;;;;11.06;56.50;101482.16;5064987;28;20052;-69
2022/05/10 03:48:22;;;;;;;7.20;4.18;;;;;;;11.08;56.99;101489.06;5057518;28;20436;-69
2022/05/10 03:50:49;;;;;;;6.95;4.20;;;;;;;11.07;57.10;101482.06;5069628;28;20060;-69
2022/05/10 03:53:17;;;;;;;9.93;4.40;;;;;;;11.10;56.97;101481.09;5059939;28;20410;-69
2022/05/10 03:55:44;;;;;;;10.93;4.30;;;;;;;11.11;56.69;101481.00;5067495;28;20924;-70
2022/05/10 03:58:13;;;;;;;8.65;4.32;;;;;;;11.16;56.99;101486.06;5067961;28;20048;-69
2022/05/10 04:00:40;;;;;;;7.05;4.05;;;;;;;11.17;57.04;101482.53;5057344;28;20053;-68
2022/05/10 04:03:08;;;;;;;5.38;3.58;;;;;;;11.19;56.89;101485.91;5068905;28;20650;-70
2022/05/10 04:05:35;;;;;;;7.22;4.22;;;;;;;11.22;56.87;101474.38;5068216;28;20051;-70
2022/05/10 04:08:04;;;;;;;7.05;4.38;;;;;;;11.23;56.71;101474.31;5053857;28;20044;-70
2022/05/10 04:10:31;;;;;;;8.15;4.68;;;;;;;11.27;57.20;101475.03;5064070;28;20471;-71
2022/05/10 04:12:58;;;;;;;11.25;4.07;;;;;;;11.30;56.84;101477.47;5060036;28;20493;-70
2022/05/10 04:15:26;;;;;;;9.82;4.65;;;;;;;11.33;56.99;101475.56;5062142;28;20058;-68
2022/05/10 04:17:53;;;;;;;10.18;4.57;;;;;;;11.33;56.96;101477.34;5059336;28;20594;-69
2022/05/10 04:20:20;;;;;;;13.93;4.22;;;;;;;11.36;56.73;101478.06;5057599;28;20379;-68
2022/05/10 04:22:48;;;;;;;7.63;4.20;;;;;;;11.38;56.80;101467.44;5062657;28;20061;-69
2022/05/10 04:25:23;;;;;;;10.65;4.47;;;;;;;11.40;57.12;101468.22;5077484;28;20067;-67
2022/05/10 04:27:52;;;;;;;10.38;4.88;;;;;;;11.43;57.18;101467.19;5063648;28;20049;-69
2022/05/10 04:30:20;;;;;;;9.60;4.03;;;;;;;11.47;56.86;101469.63;5064324;28;20052;-70
2022/05/10 04:32:49;;;;;;;11.85;5.85;;;;;;;11.49;56.99;101464.28;5062159;28;20060;-69
2022/05/10 04:35:16;;;;;;;11.43;4.93;;;;;;;11.50;56.75;101460.72;5057208;28;20066;-70
2022/05/10 04:37:43;;;;;;;9.15;4.70;;;;;;;11.54;56.77;101464.91;5057735;28;20096;-70
2022/05/10 04:42:57;;;;;;;9.27;5.03;;;;;;;11.61;56.64;101456.59;5059601;28;20063;-69
2022/05/10 04:45:24;;;;;;;8.23;4.32;;;;;;;11.64;56.62;101451.16;5043878;28;20047;-69
2022/05/10 04:47:51;;;;;;;12.52;5.07;;;;;;;11.67;56.59;101450.19;5054014;28;20060;-69
2022/05/10 04:50:19;;;;;;;8.23;4.90;;;;;;;11.71;56.79;101445.56;5065390;28;20040;-69
2022/05/10 04:52:47;;;;;;;14.27;4.30;;;;;;;11.79;56.32;101453.97;5057573;28;20094;-70
2022/05/10 04:55:16;;;;;;;10.30;4.72;;;;;;;11.87;56.25;101450.03;5048981;28;20051;-69
2022/05/10 04:57:43;;;;;;;8.73;5.15;;;;;;;11.95;56.25;101448.81;5054806;28;20048;-70
2022/05/10 05:00:12;;;;;;;9.15;4.75;;;;;;;11.98;56.64;101452.16;5053650;28;20135;-70
2022/05/10 05:02:40;;;;;;;8.73;5.20;;;;;;;12.07;56.32;101454.31;5060781;28;20048;-69
2022/05/10 05:05:07;;;;;;;8.95;4.65;;;;;;;12.17;55.68;101452.03;5043229;28;20044;-71
2022/05/10 05:07:35;;;;;;;8.35;4.80;;;;;;;12.15;55.98;101452.09;5043841;28;20048;-70
2022/05/10 05:10:03;;;;;;;9.95;5.05;;;;;;;12.09;56.12;101449.78;5059352;28;20699;-69
2022/05/10 05:12:32;;;;;;;9.68;5.03;;;;;;;12.13;55.66;101450.50;5084056;28;20044;-69
2022/05/10 05:15:01;;;;;;;11.32;4.80;;;;;;;12.22;56.02;101451.78;5063008;28;20123;-70
2022/05/10 05:17:29;;;;;;;8.98;4.15;;;;;;;12.30;55.60;101444.34;5057548;28;20041;-68
2022/05/10 05:19:56;;;;;;;9.88;5.07;;;;;;;12.40;55.86;101445.53;5058283;28;20045;-70
2022/05/10 05:22:23;;;;;;;11.30;5.05;;;;;;;12.50;55.50;101449.38;5066773;28;20053;-70
2022/05/10 05:24:51;;;;;;;9.65;4.55;;;;;;;12.57;55.20;101448.13;5046964;28;20052;-70
2022/05/10 05:27:19;;;;;;;11.25;4.88;;;;;;;12.64;55.39;101454.78;5072741;28;20411;-72
2022/05/10 05:29:47;;;;;;;12.50;6.82;;;;;;;12.80;55.12;101453.94;5061600;28;20071;-69
2022/05/10 05:32:31;;;;;;;12.32;5.30;;;;;;;12.88;54.62;101454.38;5058466;28;20049;-69
2022/05/10 05:34:59;;;;;;;14.73;5.50;;;;;;;12.98;54.74;101442.34;5056406;28;20044;-69
2022/05/10 05:37:37;;;;;;;11.98;5.57;;;;;;;13.03;54.42;101440.31;5066067;28;20071;-69
2022/05/10 05:40:10;;;;;;;15.07;4.95;;;;;;;13.15;54.43;101442.25;5042604;28;20041;-68
2022/05/10 05:42:46;;;;;;;9.05;4.50;;;;;;;13.20;54.67;101436.72;5040847;28;20045;-68
2022/05/10 05:45:15;;;;;;;9.55;4.95;;;;;;;13.33;54.45;101432.47;5041899;28;20051;-68
2022/05/10 05:47:42;;;;;;;10.73;4.95;;;;;;;13.45;53.99;101430.03;5045233;28;20052;-69
2022/05/10 05:50:15;;;;;;;12.50;5.60;;;;;;;13.59;53.98;101430.91;5060750;28;20045;-69
2022/05/10 05:52:46;;;;;;;10.35;5.18;;;;;;;13.80;53.67;101425.31;5062429;28;20051;-68
2022/05/10 05:55:13;;;;;;;10.23;5.32;;;;;;;13.91;53.37;101422.88;5044368;28;20063;-67
2022/05/10 05:57:41;;;;;;;10.27;5.65;;;;;;;14.01;52.97;101423.19;5059865;28;20056;-68
2022/05/10 06:00:16;;;;;;;12.32;5.38;;;;;;;14.12;52.73;101426.88;5064011;28;20730;-69
2022/05/10 06:02:43;;;;;;;11.60;5.15;;;;;;;14.26;52.69;101435.78;5061398;28;20561;-69
2022/05/10 06:05:10;;;;;;;10.45;5.10;;;;;;;14.31;52.49;101437.19;5060669;28;20479;-69
2022/05/10 06:07:38;;;;;;;13.27;5.10;;;;;;;14.33;52.65;101432.66;5066659;28;20143;-69
2022/05/10 06:10:06;;;;;;;12.90;4.93;;;;;;;14.49;52.42;101427.28;5046053;28;20044;-69
2022/05/10 06:12:34;;;;;;;13.70;6.15;;;;;;;14.68;51.87;101427.84;5050211;28;20063;-69
2022/05/10 06:15:07;;;;;;;12.55;4.85;;;;;;;14.88;51.50;101426.56;5064435;28;20040;-68
2022/05/10 06:17:37;;;;;;;16.45;4.75;;;;;;;15.07;51.11;101431.50;5051246;28;20056;-68
2022/05/10 06:20:07;;;;;;;12.38;5.53;;;;;;;15.20;50.83;101423.63;5049054;28;20475;-68
2022/05/10 06:22:34;;;;;;;10.98;5.30;;;;;;;15.31;50.62;101428.19;5064752;28;20112;-68
2022/05/10 06:25:03;;;;;;;12.18;4.60;;;;;;;15.38;50.36;101434.81;5065824;28;20044;-68
2022/05/10 06:27:31;;;;;;;12.23;5.05;;;;;;;15.36;50.28;101429.63;5066431;28;20122;-69
2022/05/10 06:29:59;;;;;;;11.73;5.30;;;;;;;15.50;50.24;101420.75;5060469;28;20051;-68
2022/05/10 06:32:27;;;;;;;12.32;4.95;;;;;;;15.61;49.97;101417.34;5053474;28;20515;-68
2022/05/10 06:34:54;;;;;;;17.27;5.15;;;;;;;15.71;49.92;101421.13;5063454;28;20131;-68
2022/05/10 06:40:10;;;;;;;14.02;5.55;;;;;;;15.94;49.62;101406.28;5069699;28;20059;-68
2022/05/10 06:42:38;;;;;;;17.15;5.28;;;;;;;16.00;49.50;101403.22;5066621;28;20653;-68
2022/05/10 06:45:09;;;;;;;17.52;5.35;;;;;;;16.13;49.41;101409.38;5064363;28;20045;-68
2022/05/10 06:47:38;;;;;;;10.77;4.38;;;;;;;16.25;49.24;101404.97;5067403;28;20064;-67
2022/05/10 06:50:06;;;;;;;21.63;5.00;;;;;;;16.39;48.73;101402.22;5065884;28;20056;-67
2022/05/10 06:52:36;;;;;;;11.93;4.90;;;;;;;16.42;48.63;101398.47;5050224;28;20048;-68
2022/05/10 06:55:04;;;;;;;10.30;4.22;;;;;;;16.45;48.48;101392.97;5057477;28;20463;-67
2022/05/10 06:57:32;;;;;;;14.02;5.28;;;;;;;16.53;48.41;101390.59;5055499;28;20137;-67
2022/05/10 07:00:00;;;;;;;12.88;5.47;;;;;;;16.60;48.37;101394.50;5055605;28;20079;-67
2022/05/10 07:02:27;;;;;;;15.30;4.90;;;;;;;16.68;48.58;101388.66;5057176;28;20488;-67
2022/05/10 07:04:55;;;;;;;14.23;4.40;;;;;;;16.76;48.32;101388.13;5055373;28;20048;-67
2022/05/10 07:07:22;;;;;;;15.32;5.03;;;;;;;16.80;48.18;101390.44;5056035;28;20044;-67
2022/05/10 07:09:50;;;;;;;11.60;5.47;;;;;;;16.84;48.06;101380.41;5058433;28;20523;-67
2022/05/10 07:12:17;;;;;;;14.80;4.97;;;;;;;16.85;47.74;101382.13;5057742;28;20071;-67
2022/05/10 07:14:45;;;;;;;26.88;6.75;;;;;;;17.01;47.62;101373.88;5055177;28;20135;-68
2022/05/10 07:17:12;;;;;;;13.60;5.38;;;;;;;17.15;47.21;101371.88;5061677;28;20044;-68
2022/05/10 07:19:40;;;;;;;9.65;4.93;;;;;;;17.40;47.46;101370.88;5055603;28;20067;-66
2022/05/10 07:22:07;;;;;;;18.58;5.43;;;;;;;17.71;47.07;101371.22;5056579;28;20147;-67
2022/05/10 07:24:35;;;;;;;15.77;4.47;;;;;;;17.87;46.21;101371.72;5040770;28;20523;-67
2022/05/10 07:27:02;;;;;;;14.52;4.55;;;;;;;18.10;46.15;101375.28;5052764;28;20522;-67
2022/05/10 07:29:29;;;;;;;16.60;4.57;;;;;;;18.29;45.83;101376.50;5060867;28;20060;-67
2022/05/10 07:31:56;;;;;;;17.23;5.15;;;;;;;18.44;45.17;101364.59;5057715;28;20223;-67
2022/05/10 07:34:24;;;;;;;12.98;4.85;;;;;;;18.65;44.68;101370.03;5052179;28;20343;-67
2022/05/10 07:36:51;;;;;;;22.08;5.32;;;;;;;18.85;43.64;101371.09;5055000;28;21013;-67
2022/05/10 07:39:20;;;;;;;13.00;5.20;;;;;;;18.93;43.18;101379.31;5055887;28;20041;-68
2022/05/10 07:41:50;;;;;;;11.27;4.70;;;;;;;19.09;43.39;101371.75;5061493;28;20067;-67
2022/05/10 07:44:17;;;;;;;15.35;4.38;;;;;;;19.42;43.03;101359.22;5060857;28;20048;-67
2022/05/10 07:46:45;;;;;;;11.95;4.60;;;;;;;19.54;42.45;101359.97;5064939;28;20055;-67
2022/05/10 07:49:12;;;;;;;11.15;4.38;;;;;;;19.72;41.78;101356.63;5067273;28;20132;-67
2022/05/10 07:51:39;;;;;;;10.13;4.20;;;;;;;19.95;41.75;101354.66;5062580;28;20048;-67
2022/05/10 07:54:07;;;;;;;21.38;4.45;;;;;;;20.11;41.55;101347.94;5064786;28;20056;-67
2022/05/10 07:56:34;;;;;;;9.73;3.58;;;;;;;20.28;41.12;101349.16;5062540;28;20048;-67
2022/05/10 07:59:01;;;;;;;9.90;3.85;;;;;;;20.32;41.02;101351.41;5064956;28;20057;-67
2022/05/10 08:01:28;;;;;;;16.55;4.82;;;;;;;20.40;40.47;101346.25;5053020;28;20048;-67
2022/05/10 08:03:56;;;;;;;13.40;5.20;;;;;;;20.50;39.97;101345.44;5056506;28;20063;-67
2022/05/10 08:06:24;;;;;;;19.48;4.93;;;;;;;20.61;40.32;101337.28;5060862;28;20052;-67
2022/05/10 08:08:54;;;;;;;26.48;4.63;;;;;;;20.82;39.73;101331.84;5054520;28;20059;-67
2022/05/10 08:11:22;;;;;;;13.70;3.92;;;;;;;21.03;39.80;101337.91;5050710;28;20628;-67
2022/05/10 08:13:50;;;;;;;9.77;5.38;;;;;;;21.26;39.27;101329.59;5055304;28;20061;-67
2022/05/10 08:16:19;;;;;;;8.48;4.07;;;;;;;21.44;38.85;101323.38;5082158;28;20138;-67
2022/05/10 08:18:49;;;;;;;7.75;3.78;;;;;;;21.61;38.80;101324.44;5097180;28;20139;-66
2022/05/10 08:21:16;;;;;;;13.25;3.72;;;;;;;21.57;37.16;101323.06;5069622;28;20056;-67
2022/05/10 08:23:45;;;;;;;9.93;3.60;;;;;;;21.65;37.63;101317.81;5061042;28;20104;-67
2022/05/10 08:26:12;;;;;;;9.20;3.70;;;;;;;21.78;37.35;101317.50;5064291;28;20114;-66
2022/05/10 08:28:39;;;;;;;9.85;3.92;;;;;;;21.85;37.37;101315.09;5064239;28;20064;-66
2022/05/10 08:31:08;;;;;;;24.33;4.78;;;;;;;21.87;37.61;101319.28;5064797;28;20052;-66
2022/05/10 08:33:38;;;;;;;8.88;3.90;;;;;;;21.92;37.08;101313.50;5048282;28;20072;-67
2022/05/10 08:36:08;;;;;;;9.30;3.47;;;;;;;21.95;36.52;101330.13;5058405;28;20585;-68
2022/05/10 08:38:35;;;;;;;10.07;3.40;;;;;;;21.98;35.85;101321.81;5027542;28;20056;-67
2022/05/10 08:41:11;;;;;;;12.32;3.42;;;;;;;22.01;36.12;101312.59;5064151;28;20063;-67
2022/05/10 08:43:54;;;;;;;16.50;4.05;;;;;;;22.09;36.51;101311.88;5063619;28;20051;-67
2022/05/10 08:46:27;;;;;;;11.93;3.28;;;;;;;22.36;36.47;101317.25;5057475;28;20146;-66
2022/05/10 08:49:02;;;;;;;12.80;3.72;;;;;;;22.26;35.13;101307.59;5058525;28;20056;-66
2022/05/10 08:51:29;;;;;;;16.30;3.47;;;;;;;22.27;34.33;101306.59;5062350;28;20040;-65
2022/05/10 08:53:57;;;;;;;16.35;3.25;;;;;;;22.29;34.06;101308.16;5058920;28;20063;-66
2022/05/10 08:56:28;;;;;;;17.75;4.32;;;;;;;22.29;34.21;101297.41;5039123;28;20037;-67
2022/05/10 08:59:10;;;;;;;10.25;2.92;;;;;;;22.33;34.44;101297.94;5055279;28;20132;-65
2022/05/10 09:01:49;;;;;;;12.30;3.45;;;;;;;22.49;34.24;101296.28;5067479;28;20037;-65
2022/05/10 09:04:32;;;;;;;11.82;3.30;;;;;;;22.57;33.73;101298.22;5065142;28;20084;-66
2022/05/10 09:07:07;;;;;;;10.50;3.83;;;;;;;22.51;33.24;101296.13;5071560;28;20044;-66
2022/05/10 09:10:05;;;;;;;8.98;2.53;;;;;;;22.52;33.15;101295.16;5067125;28;20083;-66
2022/05/10 09:12:48;;;;;;;11.45;3.13;;;;;;;22.60;32.78;101276.41;5055211;28;20083;-66
2022/05/10 09:15:17;;;;;;;11.07;2.95;;;;;;;22.73;32.72;101284.09;5045731;28;20072;-66
2022/05/10 09:17:44;;;;;;;8.77;2.78;;;;;;;22.89;33.08;101280.75;5059772;28;20055;-66
2022/05/10 09:20:14;;;;;;;7.95;2.60;;;;;;;23.04;32.02;101270.31;5064102;28;20074;-66
2022/05/10 09:23:00;;;;;;;;;;;;;;;23.15;31.39;101267.38;5070131;28;20071;-65
2022/05/10 09:25:34;;;;;;;7.00;2.80;;;;;;;23.33;31.70;101264.66;5059249;28;20375;-66
2022/05/10 09:28:17;;;;;;;11.15;3.08;;;;;;;23.48;31.73;101263.06;5060555;28;20947;-65
2022/05/10 09:34:45;;;;;;;5.60;2.55;;;;;;;23.56;31.01;101255.06;5048120;28;20141;-66
2022/05/10 09:36:31;;;;;;;10.02;3.50;;;;;;;23.43;31.90;101270.75;5062348;28;20172;-66
2022/05/10 09:39:14;;;;;;;11.02;2.30;;;;;;;23.49;31.48;101257.53;5045191;28;20041;-66
2022/05/10 09:41:46;;;;;;;13.02;2.85;;;;;;;23.67;31.52;101257.47;5063787;28;20060;-66
2022/05/10 09:44:20;;;;;;;8.68;2.53;;;;;;;23.84;31.46;101254.88;5069025;28;20066;-66
2022/05/10 09:46:48;;;;;;;9.25;2.28;;;;;;;23.77;30.88;101257.34;5055249;28;20045;-66
2022/05/10 09:49:34;;;;;;;15.80;2.80;;;;;;;23.86;31.07;101260.94;5059811;28;20575;-66
2022/05/10 09:52:02;;;;;;;7.65;3.35;;;;;;;23.98;30.87;101257.78;5056014;28;20049;-66
2022/05/10 09:54:36;;;;;;;8.52;2.65;;;;;;;23.92;30.83;101253.06;5061773;28;20112;-65
2022/05/10 09:57:05;;;;;;;9.90;2.90;;;;;;;24.07;30.47;101241.69;5058708;28;20123;-65
2022/05/10 09:59:38;;;;;;;9.25;2.60;;;;;;;24.27;30.58;101243.06;5062595;28;20048;-65
2022/05/10 10:02:06;;;;;;;8.52;2.80;;;;;;;24.19;29.64;101249.28;5069260;28;20068;-66
2022/05/10 10:04:40;;;;;;;7.70;2.80;;;;;;;24.15;30.26;101236.34;5057938;28;20049;-66
2022/05/10 10:07:13;;;;;;;7.38;2.33;;;;;;;24.21;30.63;101241.06;5033382;28;20045;-66
2022/05/10 10:10:05;;;;;;;8.48;2.75;;;;;;;24.07;31.04;101233.63;5066944;28;20731;-66
2022/05/10 10:12:41;;;;;;;6.65;2.42;;;;;;;24.10;30.83;101223.38;5063519;28;20052;-66
2022/05/10 10:15:20;;;;;;;9.00;2.60;;;;;;;24.26;30.94;101228.78;5061196;28;20048;-66
2022/05/10 10:17:54;;;;;;;5.85;3.15;;;;;;;24.60;30.89;101222.47;5063690;28;20055;-67
2022/05/10 10:20:36;;;;;;;8.25;2.90;;;;;;;24.78;30.45;101225.00;5065314;28;20064;-66
2022/05/10 10:23:25;;;;;;;6.10;2.50;;;;;;;24.76;30.44;101210.84;5066423;28;20446;-65
2022/05/10 10:25:57;;;;;;;5.97;2.33;;;;;;;25.02;31.19;101213.38;5049692;28;20050;-65
2022/05/10 10:28:29;;;;;;;4.80;2.35;;;;;;;25.28;30.01;101204.28;5068183;28;20087;-65
2022/05/10 10:31:02;;;;;;;6.25;2.63;;;;;;;25.29;29.56;101200.56;5064520;28;20048;-66
2022/05/10 10:33:43;;;;;;;11.02;2.88;;;;;;;25.38;29.95;101192.28;5057517;28;20076;-66
2022/05/10 10:36:19;;;;;;;7.65;2.70;;;;;;;25.62;29.61;101194.06;5041304;28;20121;-65
2022/05/10 10:39:13;;;;;;;11.02;2.60;;;;;;;25.94;29.59;101189.56;5052791;28;20436;-66
2022/05/10 10:41:51;;;;;;;4.82;2.78;;;;;;;26.04;29.44;101195.56;5069084;28;20055;-66
2022/05/10 10:44:25;;;;;;;12.13;3.20;;;;;;;26.01;29.17;101179.72;5048551;28;20043;-66
2022/05/10 10:47:16;;;;;;;7.03;2.47;;;;;;;26.14;28.89;101179.97;5048384;28;20052;-67
2022/05/10 10:49:53;;;;;;;7.97;2.63;;;;;;;26.29;29.03;101176.50;5028142;28;20499;-67
2022/05/10 10:52:22;;;;;;;6.18;2.92;;;;;;;26.12;28.87;101168.53;5075714;22;20041;-59
2022/05/10 10:54:49;;;;;;;7.13;2.38;;;;;;;26.14;28.91;101160.25;5040140;28;20187;-56
2022/05/10 10:57:16;;;;;;;10.48;2.80;;;;;;;25.51;29.58;101162.06;5045059;28;20057;-55
2022/05/10 11:00:05;;;;;;;4.25;2.22;;;;;;;25.74;29.72;101167.53;5046330;28;20520;-57
2022/05/10 11:02:54;;;;;;;6.30;2.67;;;;;;;25.85;29.02;101155.53;5043166;28;20058;-55
2022/05/10 11:05:49;;;;;;;6.75;3.13;;;;;;;26.13;29.36;101145.09;5047142;28;20088;-60
2022/05/10 11:08:25;;;;;;;8.27;3.00;;;;;;;26.43;29.09;101138.81;5049916;28;20415;-57
2022/05/10 11:11:11;;;;;;;6.32;2.60;;;;;;;26.72;29.07;101134.50;5042983;28;20049;-55
2022/05/10 11:13:50;;;;;;;8.25;2.70;;;;;;;27.12;28.23;101141.38;5042967;28;20052;-57
2022/05/10 11:16:45;;;;;;;8.60;2.72;;;;;;;27.27;28.08;101123.25;5047062;28;20061;-60
2022/05/10 11:19:58;;;;;;;8.70;2.63;;;;;;;27.47;27.67;101120.84;5045046;28;20489;-58
2022/05/10 11:22:29;;;;;;;11.77;2.70;;;;;;;27.47;27.23;101123.53;5041583;28;20053;-57
2022/05/10 11:25:17;;;;;;;10.15;3.00;;;;;;;27.50;27.30;101128.53;5035643;28;21380;-60
2022/05/10 11:28:16;;;;;;;6.70;2.88;;;;;;;27.79;26.86;101113.31;5039084;28;20057;-60
2022/05/10 11:30:50;;;;;;;7.57;3.15;;;;;;;27.84;26.73;101129.00;5042538;28;20406;-60
2022/05/10 11:33:32;;;;;;;7.97;2.95;;;;;;;28.04;27.24;101113.78;5048286;28;20053;-58
2022/05/10 11:36:22;;;;;;;7.95;2.70;;;;;;;27.89;27.16;101113.00;5041371;28;20053;-58
2022/05/10 11:39:10;;;;;;;6.15;2.78;;;;;;;27.99;26.79;101110.81;5046635;28;20053;-60
2022/05/10 11:41:46;;;;;;;4.45;2.30;;;;;;;27.95;26.72;101104.94;5059995;22;20048;-55
2022/05/10 11:44:36;;;;;;;10.93;2.83;;;;;;;28.02;27.49;101102.31;5027349;28;20056;-57
2022/05/10 11:47:38;;;;;;;8.60;2.53;;;;;;;28.20;26.63;101094.59;5026924;28;20046;-58
2022/05/10 11:50:06;;;;;;;4.60;2.55;;;;;;;28.31;26.40;101086.94;5020667;28;20045;-56
2022/05/10 11:52:56;;;;;;;5.97;2.70;;;;;;;28.10;26.70;101077.84;5022977;28;20061;-54
2022/05/10 11:55:53;;;;;;;6.72;2.90;;;;;;;28.18;26.87;101083.09;5008485;28;20046;-56
2022/05/10 11:58:21;;;;;;;4.03;2.35;;;;;;;28.24;26.49;101078.78;5040121;28;20062;-55
2022/05/10 12:00:51;;;;;;;7.50;2.75;;;;;;;27.91;26.64;101067.63;5040786;28;20056;-54